createdAt,value
2022-09-07T00:00:06.208Z,22.49
2022-09-07T00:01:06.492Z,22.50
2022-09-07T00:02:06.816Z,22.49
2022-09-07T00:03:07.118Z,22.53
2022-09-07T00:04:07.480Z,22.53
2022-09-07T00:05:07.744Z,22.53
2022-09-07T00:06:08.027Z,22.47
2022-09-07T00:07:08.350Z,22.46
2022-09-07T00:08:08.524Z,22.47
2022-09-07T00:09:08.841Z,22.38
2022-09-07T00:10:09.058Z,22.37
2022-09-07T00:11:09.337Z,22.38
2022-09-07T00:12:09.640Z,22.32
2022-09-07T00:13:09.894Z,22.34
2022-09-07T00:14:10.250Z,22.37
2022-09-07T00:15:10.465Z,22.35
2022-09-07T00:16:10.701Z,22.31
2022-09-07T00:17:10.971Z,22.27
2022-09-07T00:18:11.279Z,22.22
2022-09-07T00:19:11.544Z,22.17
2022-09-07T00:20:11.922Z,22.23
2022-09-07T00:21:12.240Z,22.23
2022-09-07T00:22:12.535Z,22.27
2022-09-07T00:23:12.880Z,22.32
2022-09-07T00:24:13.184Z,22.35
2022-09-07T00:25:13.447Z,22.39
2022-09-07T00:26:13.784Z,22.43
2022-09-07T00:27:14.052Z,22.49
2022-09-07T00:28:14.358Z,22.50
2022-09-07T00:29:14.730Z,22.39
2022-09-07T00:30:15.018Z,22.37
2022-09-07T00:31:15.442Z,22.29
2022-09-07T00:32:15.764Z,22.28
2022-09-07T00:33:15.847Z,22.28
2022-09-07T00:34:16.197Z,22.23
2022-09-07T00:35:16.520Z,22.27
2022-09-07T00:36:16.827Z,22.28
2022-09-07T00:37:17.183Z,22.27
2022-09-07T00:38:17.334Z,22.29
2022-09-07T00:39:17.668Z,22.27
2022-09-07T00:40:17.925Z,22.20
2022-09-07T00:41:18.224Z,22.17
2022-09-07T00:42:18.569Z,22.16
2022-09-07T00:43:18.898Z,22.16
2022-09-07T00:44:19.069Z,22.17
2022-09-07T00:45:19.418Z,22.19
2022-09-07T00:46:19.705Z,22.22
2022-09-07T00:47:19.814Z,22.20
2022-09-07T00:48:20.182Z,22.17
2022-09-07T00:49:20.501Z,22.20
2022-09-07T00:50:20.881Z,22.16
2022-09-07T00:51:21.175Z,22.16
2022-09-07T00:52:21.526Z,22.12
2022-09-07T00:53:21.779Z,22.14
2022-09-07T00:54:22.023Z,22.12
2022-09-07T00:55:22.357Z,22.09
2022-09-07T00:56:23.087Z,22.06
2022-09-07T00:57:22.873Z,22.02
2022-09-07T00:58:23.096Z,22.04
2022-09-07T00:59:23.376Z,22.02
2022-09-07T01:00:23.771Z,22.02
2022-09-07T01:01:24.281Z,22.02
2022-09-07T01:02:24.330Z,22.07
2022-09-07T01:03:24.613Z,22.06
2022-09-07T01:04:24.881Z,22.12
2022-09-07T01:05:25.150Z,22.14
2022-09-07T01:06:25.485Z,22.16
2022-09-07T01:07:25.781Z,22.10
2022-09-07T01:08:26.090Z,22.12
2022-09-07T01:09:26.299Z,22.13
2022-09-07T01:10:26.628Z,22.14
2022-09-07T01:11:26.967Z,22.13
2022-09-07T01:12:27.229Z,21.99
2022-09-07T01:13:27.491Z,21.95
2022-09-07T01:14:27.844Z,21.91
2022-09-07T01:15:28.030Z,21.95
2022-09-07T01:16:28.467Z,21.98
2022-09-07T01:17:28.629Z,21.99
2022-09-07T01:18:29.037Z,22.06
2022-09-07T01:19:29.280Z,22.09
2022-09-07T01:20:29.540Z,22.14
2022-09-07T01:21:29.877Z,22.17
2022-09-07T01:22:30.076Z,22.17
2022-09-07T01:23:30.380Z,22.22
2022-09-07T01:24:30.733Z,22.23
2022-09-07T01:25:31.052Z,22.25
2022-09-07T01:26:31.294Z,22.29
2022-09-07T01:27:31.557Z,22.28
2022-09-07T01:28:31.849Z,22.32
2022-09-07T01:29:32.024Z,22.32
2022-09-07T01:30:32.384Z,22.37
2022-09-07T01:31:32.750Z,22.41
2022-09-07T01:32:33.012Z,22.41
2022-09-07T01:33:33.246Z,22.43
2022-09-07T01:34:33.524Z,22.41
2022-09-07T01:35:33.782Z,22.47
2022-09-07T01:36:33.996Z,22.50
2022-09-07T01:37:34.268Z,22.47
2022-09-07T01:38:34.576Z,22.46
2022-09-07T01:39:34.920Z,22.39
2022-09-07T01:40:35.150Z,22.43
2022-09-07T01:41:35.472Z,22.44
2022-09-07T01:42:35.713Z,22.50
2022-09-07T01:43:36.032Z,22.52
2022-09-07T01:44:36.318Z,22.54
2022-09-07T01:45:36.659Z,22.50
2022-09-07T01:46:37.101Z,22.47
2022-09-07T01:47:37.245Z,22.41
2022-09-07T01:48:37.469Z,22.47
2022-09-07T01:49:37.788Z,22.47
2022-09-07T01:50:38.075Z,22.50
2022-09-07T01:51:38.402Z,22.54
2022-09-07T01:52:38.686Z,22.54
2022-09-07T01:53:39.031Z,22.53
2022-09-07T01:54:39.227Z,22.52
2022-09-07T01:55:39.522Z,22.50
2022-09-07T01:56:39.831Z,22.49
2022-09-07T01:57:40.148Z,22.52
2022-09-07T01:58:40.443Z,22.47
2022-09-07T01:59:40.791Z,22.41
2022-09-07T02:00:41.196Z,22.37
2022-09-07T02:01:41.496Z,22.34
2022-09-07T02:02:41.756Z,22.34
2022-09-07T02:03:41.956Z,22.29
2022-09-07T02:04:42.284Z,22.25
2022-09-07T02:05:42.506Z,22.13
2022-09-07T02:06:42.870Z,22.07
2022-09-07T02:07:43.197Z,22.04
2022-09-07T02:08:43.502Z,21.99
2022-09-07T02:09:43.793Z,21.94
2022-09-07T02:10:44.096Z,21.92
2022-09-07T02:11:44.356Z,21.88
2022-09-07T02:12:44.730Z,21.81
2022-09-07T02:13:44.957Z,21.71
2022-09-07T02:14:48.277Z,21.66
2022-09-07T02:15:46.609Z,21.61
2022-09-07T02:16:45.802Z,21.53
2022-09-07T02:17:46.107Z,21.45
2022-09-07T02:18:46.451Z,21.41
2022-09-07T02:19:46.762Z,21.36
2022-09-07T02:20:47.109Z,21.30
2022-09-07T02:21:47.299Z,21.27
2022-09-07T02:22:47.582Z,21.23
2022-09-07T02:23:47.872Z,21.23
2022-09-07T02:24:48.312Z,21.14
2022-09-07T02:25:48.585Z,21.13
2022-09-07T02:26:48.861Z,21.11
2022-09-07T02:27:49.173Z,21.04
2022-09-07T02:28:49.469Z,20.96
2022-09-07T02:29:49.757Z,20.96
2022-09-07T02:30:50.102Z,20.87
2022-09-07T02:31:50.333Z,20.83
2022-09-07T02:32:50.698Z,20.77
2022-09-07T02:33:50.989Z,20.61
2022-09-07T02:34:51.272Z,20.50
2022-09-07T02:35:51.583Z,20.42
2022-09-07T02:36:51.914Z,20.35
2022-09-07T02:37:52.176Z,20.38
2022-09-07T02:38:52.438Z,20.38
2022-09-07T02:39:52.754Z,20.34
2022-09-07T02:40:52.924Z,20.30
2022-09-07T02:41:53.165Z,20.24
2022-09-07T02:42:53.448Z,20.16
2022-09-07T02:43:53.820Z,20.12
2022-09-07T02:44:53.983Z,20.06
2022-09-07T02:45:54.419Z,19.97
2022-09-07T02:46:54.712Z,19.90
2022-09-07T02:47:55.023Z,19.87
2022-09-07T02:48:55.358Z,19.83
2022-09-07T02:49:55.646Z,19.80
2022-09-07T02:50:55.977Z,19.78
2022-09-07T02:51:56.268Z,19.76
2022-09-07T02:52:56.566Z,19.75
2022-09-07T02:53:56.866Z,19.72
2022-09-07T02:54:57.068Z,19.73
2022-09-07T02:55:57.404Z,19.73
2022-09-07T02:56:57.716Z,19.75
2022-09-07T02:57:58.033Z,19.73
2022-09-07T02:58:58.334Z,19.78
2022-09-07T02:59:58.651Z,19.79
2022-09-07T03:00:59.045Z,19.86
2022-09-07T03:01:59.170Z,19.91
2022-09-07T03:02:59.612Z,19.93
2022-09-07T03:03:59.723Z,19.93
2022-09-07T03:05:00.040Z,19.97
2022-09-07T03:06:00.709Z,20.00
2022-09-07T03:07:00.570Z,20.02
2022-09-07T03:08:00.876Z,20.03
2022-09-07T03:09:01.182Z,20.05
2022-09-07T03:10:01.458Z,20.09
2022-09-07T03:11:01.727Z,20.12
2022-09-07T03:12:02.012Z,20.08
2022-09-07T03:13:02.258Z,20.05
2022-09-07T03:14:02.561Z,19.98
2022-09-07T03:15:02.820Z,19.93
2022-09-07T03:16:03.228Z,19.93
2022-09-07T03:17:03.556Z,19.78
2022-09-07T03:18:04.182Z,19.68
2022-09-07T03:19:04.034Z,19.61
2022-09-07T03:20:04.364Z,19.61
2022-09-07T03:21:04.647Z,19.63
2022-09-07T03:22:04.940Z,19.60
2022-09-07T03:23:05.296Z,19.63
2022-09-07T03:24:05.594Z,19.66
2022-09-07T03:25:05.935Z,19.65
2022-09-07T03:26:06.238Z,19.70
2022-09-07T03:27:06.566Z,19.76
2022-09-07T03:28:06.937Z,19.80
2022-09-07T03:29:07.207Z,19.83
2022-09-07T03:30:07.519Z,19.84
2022-09-07T03:31:07.940Z,19.83
2022-09-07T03:32:08.126Z,19.75
2022-09-07T03:33:08.386Z,19.80
2022-09-07T03:34:08.728Z,19.69
2022-09-07T03:35:09.029Z,19.61
2022-09-07T03:36:09.351Z,19.66
2022-09-07T03:37:09.654Z,19.63
2022-09-07T03:38:09.920Z,19.53
2022-09-07T03:39:10.240Z,19.50
2022-09-07T03:40:10.571Z,19.50
2022-09-07T03:41:10.743Z,19.51
2022-09-07T03:42:11.094Z,19.54
2022-09-07T03:43:11.432Z,19.65
2022-09-07T03:44:11.677Z,19.68
2022-09-07T03:45:11.992Z,19.72
2022-09-07T03:46:12.257Z,19.75
2022-09-07T03:47:12.522Z,19.66
2022-09-07T03:48:12.843Z,19.68
2022-09-07T03:49:13.161Z,19.70
2022-09-07T03:50:13.480Z,19.75
2022-09-07T03:51:13.774Z,19.80
2022-09-07T03:52:14.134Z,19.83
2022-09-07T03:53:14.305Z,19.90
2022-09-07T03:54:14.592Z,19.91
2022-09-07T03:55:14.921Z,19.98
2022-09-07T03:56:15.217Z,19.98
2022-09-07T03:57:15.475Z,20.03
2022-09-07T03:58:15.823Z,20.05
2022-09-07T03:59:16.107Z,20.00
2022-09-07T04:00:16.426Z,19.98
2022-09-07T04:01:16.726Z,19.83
2022-09-07T04:02:17.078Z,19.83
2022-09-07T04:03:17.355Z,19.84
2022-09-07T04:04:17.691Z,19.91
2022-09-07T04:05:17.996Z,19.95
2022-09-07T04:06:18.244Z,20.00
2022-09-07T04:07:18.550Z,19.97
2022-09-07T04:08:18.825Z,20.03
2022-09-07T04:09:20.159Z,20.08
2022-09-07T04:10:19.451Z,20.09
2022-09-07T04:11:19.836Z,20.15
2022-09-07T04:12:20.074Z,20.10
2022-09-07T04:13:20.389Z,20.16
2022-09-07T04:14:20.698Z,20.16
2022-09-07T04:15:21.012Z,20.02
2022-09-07T04:16:21.369Z,19.94
2022-09-07T04:17:21.576Z,19.84
2022-09-07T04:18:21.827Z,19.87
2022-09-07T04:19:22.175Z,19.90
2022-09-07T04:20:22.449Z,19.94
2022-09-07T04:21:22.714Z,19.98
2022-09-07T04:22:23.138Z,19.97
2022-09-07T04:23:23.324Z,19.86
2022-09-07T04:24:23.615Z,19.88
2022-09-07T04:25:23.757Z,19.88
2022-09-07T04:26:24.085Z,19.93
2022-09-07T04:27:24.334Z,19.95
2022-09-07T04:28:24.647Z,19.95
2022-09-07T04:29:25.023Z,19.95
2022-09-07T04:30:25.232Z,19.97
2022-09-07T04:31:25.490Z,19.97
2022-09-07T04:32:25.698Z,20.02
2022-09-07T04:33:25.959Z,19.97
2022-09-07T04:34:26.202Z,20.05
2022-09-07T04:35:26.508Z,19.90
2022-09-07T04:36:26.700Z,19.80
2022-09-07T04:37:26.922Z,19.87
2022-09-07T04:38:27.362Z,19.93
2022-09-07T04:39:27.571Z,19.87
2022-09-07T04:40:27.796Z,19.86
2022-09-07T04:41:28.050Z,19.86
2022-09-07T04:42:28.307Z,19.87
2022-09-07T04:43:28.623Z,19.90
2022-09-07T04:44:28.835Z,19.88
2022-09-07T04:45:29.065Z,19.90
2022-09-07T04:46:29.584Z,19.97
2022-09-07T04:47:29.801Z,20.03
2022-09-07T04:48:30.171Z,20.08
2022-09-07T04:49:30.312Z,20.09
2022-09-07T04:50:30.566Z,20.13
2022-09-07T04:51:30.818Z,20.16
2022-09-07T04:52:31.078Z,20.23
2022-09-07T04:53:31.330Z,20.24
2022-09-07T04:54:31.579Z,20.30
2022-09-07T04:55:31.850Z,20.33
2022-09-07T04:56:32.124Z,20.25
2022-09-07T04:57:32.410Z,20.24
2022-09-07T04:58:32.713Z,20.21
2022-09-07T04:59:32.942Z,20.21
2022-09-07T05:00:33.272Z,20.24
2022-09-07T05:01:33.544Z,20.25
2022-09-07T05:02:33.873Z,20.27
2022-09-07T05:03:34.047Z,20.30
2022-09-07T05:04:34.329Z,20.33
2022-09-07T05:05:34.556Z,20.35
2022-09-07T05:06:34.931Z,20.41
2022-09-07T05:07:35.178Z,20.41
2022-09-07T05:08:35.455Z,20.39
2022-09-07T05:09:35.709Z,20.34
2022-09-07T05:10:35.985Z,20.28
2022-09-07T05:11:36.273Z,20.25
2022-09-07T05:12:36.481Z,20.27
2022-09-07T05:13:36.731Z,20.31
2022-09-07T05:14:36.988Z,20.30
2022-09-07T05:15:37.278Z,20.28
2022-09-07T05:16:37.538Z,20.23
2022-09-07T05:17:37.710Z,20.21
2022-09-07T05:18:37.963Z,20.21
2022-09-07T05:19:38.257Z,20.21
2022-09-07T05:20:38.510Z,20.20
2022-09-07T05:21:38.762Z,20.24
2022-09-07T05:22:38.981Z,20.24
2022-09-07T05:23:39.227Z,20.23
2022-09-07T05:24:39.508Z,20.23
2022-09-07T05:25:39.760Z,20.15
2022-09-07T05:26:40.056Z,20.06
2022-09-07T05:27:40.346Z,20.05
2022-09-07T05:28:40.557Z,19.94
2022-09-07T05:31:42.340Z,19.86
2022-09-07T05:32:41.582Z,19.88
2022-09-07T05:34:43.230Z,19.88
2022-09-07T05:35:42.495Z,19.86
2022-09-07T05:36:42.783Z,19.88
2022-09-07T05:37:42.988Z,19.88
2022-09-07T05:38:43.693Z,19.90
2022-09-07T05:39:43.573Z,19.91
2022-09-07T05:40:43.787Z,19.95
2022-09-07T05:41:44.050Z,19.98
2022-09-07T05:42:44.272Z,20.02
2022-09-07T05:44:46.124Z,20.05
2022-09-07T05:45:45.113Z,20.12
2022-09-07T05:46:45.325Z,20.15
2022-09-07T05:47:45.645Z,20.21
2022-09-07T05:48:45.877Z,20.27
2022-09-07T05:49:46.141Z,20.35
2022-09-07T05:50:46.392Z,20.35
2022-09-07T05:51:46.627Z,20.41
2022-09-07T05:52:46.884Z,20.39
2022-09-07T05:53:47.157Z,20.42
2022-09-07T05:54:47.455Z,20.38
2022-09-07T05:55:47.692Z,20.34
2022-09-07T05:56:47.915Z,20.38
2022-09-07T05:57:48.155Z,20.46
2022-09-07T05:58:48.449Z,20.50
2022-09-07T05:59:48.762Z,20.54
2022-09-07T06:00:48.946Z,20.59
2022-09-07T06:01:49.325Z,20.62
2022-09-07T06:02:49.557Z,20.58
2022-09-07T06:03:49.726Z,20.54
2022-09-07T06:04:49.917Z,20.54
2022-09-07T06:05:50.334Z,20.58
2022-09-07T06:07:11.034Z,20.59
2022-09-07T06:07:51.835Z,20.68
2022-09-07T06:08:51.122Z,20.68
2022-09-07T06:10:52.661Z,20.72
2022-09-07T06:11:51.919Z,20.72
2022-09-07T06:12:52.199Z,20.80
2022-09-07T06:13:52.412Z,20.81
2022-09-07T06:14:52.656Z,20.80
2022-09-07T06:15:52.923Z,20.81
2022-09-07T06:16:53.238Z,20.84
2022-09-07T06:17:53.489Z,20.86
2022-09-07T06:18:53.773Z,20.91
2022-09-07T06:19:54.008Z,20.95
2022-09-07T06:20:54.263Z,20.95
2022-09-07T06:21:54.530Z,21.04
2022-09-07T06:22:54.758Z,21.04
2022-09-07T06:23:55.006Z,21.11
2022-09-07T06:24:55.242Z,21.13
2022-09-07T06:25:55.469Z,21.13
2022-09-07T06:26:55.737Z,21.09
2022-09-07T06:27:56.468Z,21.04
2022-09-07T06:28:58.021Z,20.98
2022-09-07T06:29:56.503Z,20.99
2022-09-07T06:30:56.795Z,21.01
2022-09-07T06:32:58.250Z,21.02
2022-09-07T06:33:57.447Z,21.05
2022-09-07T06:34:57.709Z,21.06
2022-09-07T06:35:58.012Z,21.05
2022-09-07T06:36:58.324Z,21.11
2022-09-07T06:37:58.543Z,21.14
2022-09-07T06:38:58.846Z,21.19
2022-09-07T06:39:59.129Z,21.24
2022-09-07T06:42:00.904Z,21.39
2022-09-07T06:43:00.033Z,21.45
2022-09-07T06:44:00.240Z,21.36
2022-09-07T06:45:00.514Z,21.36
2022-09-07T06:48:01.453Z,21.44
2022-09-07T06:49:01.680Z,21.48
2022-09-07T06:50:01.900Z,21.60
2022-09-07T06:51:02.168Z,21.75
2022-09-07T06:52:02.403Z,21.88
2022-09-07T06:55:04.287Z,22.07
2022-09-07T06:56:03.601Z,22.04
2022-09-07T06:57:03.840Z,22.10
2022-09-07T06:58:04.088Z,22.10
2022-09-07T06:59:04.356Z,22.07
2022-09-07T07:00:04.585Z,22.06
2022-09-07T07:01:04.905Z,22.10
2022-09-07T07:02:05.176Z,22.12
2022-09-07T07:03:05.441Z,22.13
2022-09-07T07:04:05.659Z,22.19
2022-09-07T07:05:05.981Z,22.22
2022-09-07T07:06:06.230Z,22.27
2022-09-07T07:07:06.445Z,22.31
2022-09-07T07:08:06.717Z,22.35
2022-09-07T07:09:06.967Z,22.37
2022-09-07T07:10:07.288Z,22.43
2022-09-07T07:11:07.539Z,22.47
2022-09-07T07:12:07.978Z,22.54
2022-09-07T07:13:08.089Z,22.60
2022-09-07T07:14:08.326Z,22.68
2022-09-07T07:15:08.626Z,22.62
2022-09-07T07:16:08.891Z,22.68
2022-09-07T07:17:09.319Z,22.75
2022-09-07T07:18:20.977Z,22.82
2022-09-07T07:19:10.669Z,22.92
2022-09-07T07:20:10.467Z,22.97
2022-09-07T07:21:10.280Z,22.96
2022-09-07T07:23:11.768Z,23.07
2022-09-07T07:24:11.036Z,23.14
2022-09-07T07:25:11.325Z,23.20
2022-09-07T07:26:11.620Z,23.19
2022-09-07T07:27:11.922Z,23.20
2022-09-07T07:29:17.054Z,23.32
2022-09-07T07:30:13.747Z,23.34
2022-09-07T07:31:13.367Z,23.39
2022-09-07T07:32:13.239Z,23.42
2022-09-07T07:33:13.517Z,23.45
2022-09-07T07:34:13.853Z,23.49
2022-09-07T07:35:13.982Z,23.49
2022-09-07T07:36:14.237Z,23.67
2022-09-07T07:37:14.504Z,23.77
2022-09-07T07:40:17.916Z,23.87
2022-09-07T07:42:16.995Z,23.90
2022-09-07T07:43:16.278Z,23.97
2022-09-07T07:44:16.585Z,24.02
2022-09-07T07:46:18.140Z,24.04
2022-09-07T07:47:17.404Z,24.13
2022-09-07T07:48:17.592Z,24.17
2022-09-07T07:49:17.867Z,24.19
2022-09-07T07:50:34.580Z,24.16
2022-09-07T07:51:19.453Z,24.22
2022-09-07T07:54:20.339Z,24.17
2022-09-07T07:56:20.883Z,24.20
2022-09-07T07:57:20.119Z,24.13
2022-09-07T07:58:20.358Z,24.07
2022-09-07T07:59:20.627Z,24.05
2022-09-07T08:00:37.387Z,24.07
2022-09-07T08:01:22.228Z,24.17
2022-09-07T08:02:21.424Z,24.29
2022-09-07T08:03:21.663Z,24.17
2022-09-07T08:04:21.921Z,24.29
2022-09-07T08:05:22.167Z,24.32
2022-09-07T08:06:22.432Z,24.47
2022-09-07T08:07:22.677Z,24.50
2022-09-07T08:08:22.940Z,24.49
2022-09-07T08:09:23.198Z,24.38
2022-09-07T08:10:23.469Z,24.50
2022-09-07T08:11:23.805Z,24.69
2022-09-07T08:12:29.145Z,24.77
2022-09-07T08:13:25.253Z,24.98
2022-09-07T08:14:24.552Z,25.22
2022-09-07T08:15:24.799Z,25.42
2022-09-07T08:16:25.143Z,25.52
2022-09-07T08:17:25.337Z,25.68
2022-09-07T08:18:25.576Z,25.77
2022-09-07T08:19:25.808Z,25.90
2022-09-07T08:20:26.106Z,25.91
2022-09-07T08:21:26.306Z,26.12
2022-09-07T08:22:26.546Z,26.42
2022-09-07T08:23:26.909Z,26.64
2022-09-07T08:24:27.127Z,26.87
2022-09-07T08:25:27.383Z,27.13
2022-09-07T08:26:27.645Z,26.83
2022-09-07T08:27:28.010Z,26.61
2022-09-07T08:28:28.194Z,26.68
2022-09-07T08:29:32.492Z,26.74
2022-09-07T08:30:29.784Z,27.01
2022-09-07T08:31:29.086Z,26.87
2022-09-07T08:32:29.262Z,27.16
2022-09-07T08:33:29.665Z,27.36
2022-09-07T08:34:29.913Z,27.58
2022-09-07T08:35:30.324Z,27.48
2022-09-07T08:36:30.480Z,27.04
2022-09-07T08:37:30.728Z,26.46
2022-09-07T08:38:30.981Z,26.29
2022-09-07T08:39:31.242Z,26.72
2022-09-07T08:40:31.528Z,27.10
2022-09-07T08:41:31.793Z,27.29
2022-09-07T08:42:32.057Z,27.16
2022-09-07T08:43:32.453Z,27.42
2022-09-07T08:44:32.630Z,27.57
2022-09-07T08:45:32.911Z,27.59
2022-09-07T08:46:33.170Z,27.35
2022-09-07T08:47:33.480Z,27.67
2022-09-07T08:48:33.679Z,28.16
2022-09-07T08:49:33.928Z,28.36
2022-09-07T08:50:34.178Z,28.91
2022-09-07T08:51:34.472Z,29.34
2022-09-07T08:52:34.753Z,29.75
2022-09-07T08:53:35.022Z,30.11
2022-09-07T08:54:35.254Z,30.23
2022-09-07T08:55:35.550Z,30.49
2022-09-07T08:56:35.884Z,30.59
2022-09-07T08:57:36.602Z,30.81
2022-09-07T08:58:51.733Z,30.96
2022-09-07T08:59:37.682Z,30.96
2022-09-07T09:00:36.930Z,30.71
2022-09-07T09:01:37.533Z,30.54
2022-09-07T09:02:43.567Z,30.15
2022-09-07T09:04:15.334Z,30.02
2022-09-07T09:05:16.355Z,30.37
2022-09-07T09:05:39.448Z,30.36
2022-09-07T09:06:38.741Z,30.05
2022-09-07T09:07:38.855Z,29.87
2022-09-07T09:08:39.109Z,29.86
2022-09-07T09:09:39.327Z,30.03
2022-09-07T09:10:39.697Z,30.40
2022-09-07T09:11:39.942Z,30.14
2022-09-07T09:12:40.174Z,30.24
2022-09-07T09:13:40.455Z,30.57
2022-09-07T09:14:40.708Z,30.61
2022-09-07T09:15:41.117Z,30.91
2022-09-07T09:16:42.882Z,30.89
2022-09-07T09:17:41.470Z,30.27
2022-09-07T09:18:41.794Z,30.21
2022-09-07T09:19:42.075Z,29.92
2022-09-07T09:20:42.351Z,30.38
2022-09-07T09:21:42.590Z,30.52
2022-09-07T09:22:43.311Z,30.08
2022-09-07T09:23:43.151Z,30.54
2022-09-07T09:24:43.364Z,31.06
2022-09-07T09:25:43.727Z,31.13
2022-09-07T09:26:44.041Z,31.43
2022-09-07T09:27:44.277Z,31.99
2022-09-07T09:28:44.577Z,32.43
2022-09-07T09:29:44.769Z,32.88
2022-09-07T09:30:44.997Z,33.14
2022-09-07T09:31:45.310Z,33.06
2022-09-07T09:32:45.529Z,31.96
2022-09-07T09:33:45.903Z,32.32
2022-09-07T09:34:46.108Z,32.74
2022-09-07T09:35:46.347Z,32.84
2022-09-07T09:36:46.610Z,33.20
2022-09-07T09:37:46.891Z,32.73
2022-09-07T09:38:47.188Z,32.51
2022-09-07T09:39:49.045Z,32.96
2022-09-07T09:40:47.665Z,32.71
2022-09-07T09:41:47.999Z,32.62
2022-09-07T09:42:48.211Z,32.70
2022-09-07T09:43:48.475Z,32.43
2022-09-07T09:44:48.760Z,32.98
2022-09-07T09:47:29.449Z,34.04
2022-09-07T09:47:50.734Z,33.45
2022-09-07T09:48:49.886Z,32.79
2022-09-07T09:49:50.118Z,32.98
2022-09-07T09:52:52.266Z,32.76
2022-09-07T09:53:51.421Z,31.95
2022-09-07T09:54:51.657Z,32.37
2022-09-07T09:55:51.905Z,32.99
2022-09-07T09:56:52.241Z,33.31
2022-09-07T09:59:57.451Z,34.19
2022-09-07T10:03:56.129Z,32.84
2022-09-07T10:04:54.529Z,33.15
2022-09-07T10:05:54.784Z,33.37
2022-09-07T10:06:55.078Z,33.78
2022-09-07T10:07:55.374Z,34.19
2022-09-07T10:08:55.676Z,34.53
2022-09-07T10:09:55.969Z,34.79
2022-09-07T10:10:56.271Z,34.80
2022-09-07T10:12:11.871Z,34.45
2022-09-07T10:12:57.815Z,34.22
2022-09-07T10:13:57.132Z,34.57
2022-09-07T10:14:57.443Z,34.44
2022-09-07T10:15:57.720Z,34.84
2022-09-07T10:16:58.040Z,34.19
2022-09-07T10:17:58.317Z,32.47
2022-09-07T10:18:58.594Z,31.73
2022-09-07T10:19:58.903Z,31.79
2022-09-07T10:20:59.108Z,32.47
2022-09-07T10:21:59.429Z,32.93
2022-09-07T10:22:59.712Z,33.51
2022-09-07T10:23:59.975Z,34.07
2022-09-07T10:25:00.268Z,34.00
2022-09-07T10:26:00.555Z,34.41
2022-09-07T10:27:00.887Z,34.86
2022-09-07T10:28:01.104Z,35.32
2022-09-07T10:29:08.715Z,35.76
2022-09-07T10:30:02.574Z,35.79
2022-09-07T10:31:01.909Z,35.50
2022-09-07T10:32:02.164Z,35.13
2022-09-07T10:33:02.455Z,34.51
2022-09-07T10:35:05.308Z,32.29
2022-09-07T10:36:03.298Z,32.61
2022-09-07T10:37:03.576Z,33.01
2022-09-07T10:38:03.780Z,32.84
2022-09-07T10:39:04.170Z,33.33
2022-09-07T10:40:04.351Z,32.85
2022-09-07T10:41:04.564Z,32.62
2022-09-07T10:42:04.853Z,33.13
2022-09-07T10:43:21.072Z,33.95
2022-09-07T10:44:06.356Z,34.76
2022-09-07T10:45:05.617Z,35.26
2022-09-07T10:46:06.045Z,35.85
2022-09-07T10:47:06.211Z,35.99
2022-09-07T10:48:06.479Z,36.29
2022-09-07T10:49:06.730Z,36.77
2022-09-07T10:50:22.784Z,37.24
2022-09-07T10:51:14.006Z,37.47
2022-09-07T10:52:08.582Z,37.05
2022-09-07T10:53:23.859Z,36.97
2022-09-07T10:55:09.463Z,35.39
2022-09-07T10:56:08.769Z,35.55
2022-09-07T10:57:09.037Z,35.93
2022-09-07T10:58:09.349Z,36.20
2022-09-07T10:59:09.575Z,36.30
2022-09-07T11:00:10.352Z,36.61
2022-09-07T11:01:10.187Z,35.97
2022-09-07T11:02:10.429Z,34.70
2022-09-07T11:03:26.490Z,33.87
2022-09-07T11:04:11.966Z,32.84
2022-09-07T11:05:11.244Z,33.41
2022-09-07T11:06:11.536Z,34.09
2022-09-07T11:07:15.518Z,34.11
2022-09-07T11:08:12.095Z,34.17
2022-09-07T11:09:16.546Z,34.63
2022-09-07T11:10:12.618Z,35.18
2022-09-07T11:11:12.873Z,35.73
2022-09-07T11:12:13.193Z,35.55
2022-09-07T11:13:13.362Z,34.38
2022-09-07T11:14:13.898Z,33.17
2022-09-07T11:15:14.048Z,32.35
2022-09-07T11:16:50.445Z,31.76
2022-09-07T11:17:15.688Z,31.95
2022-09-07T11:18:14.976Z,32.77
2022-09-07T11:20:16.572Z,32.80
2022-09-07T11:21:56.142Z,33.08
2022-09-07T11:22:17.170Z,33.42
2022-09-07T11:23:16.416Z,34.09
2022-09-07T11:24:16.685Z,34.56
2022-09-07T11:25:32.295Z,34.74
2022-09-07T11:26:18.206Z,35.01
2022-09-07T11:27:17.456Z,35.20
2022-09-07T11:28:17.683Z,35.72
2022-09-07T11:29:33.140Z,35.02
2022-09-07T11:30:19.321Z,34.80
2022-09-07T11:31:18.560Z,34.27
2022-09-07T11:32:18.849Z,34.00
2022-09-07T11:33:19.101Z,33.31
2022-09-07T11:34:26.512Z,33.27
2022-09-07T11:35:20.611Z,33.10
2022-09-07T11:36:19.903Z,32.74
2022-09-07T11:37:20.071Z,32.33
2022-09-07T11:38:20.508Z,32.07
2022-09-07T11:39:20.678Z,32.91
2022-09-07T11:40:21.095Z,33.63
2022-09-07T11:41:21.321Z,33.06
2022-09-07T11:43:22.988Z,33.39
2022-09-07T11:44:22.310Z,34.17
2022-09-07T11:45:22.393Z,34.77
2022-09-07T11:46:22.826Z,34.89
2022-09-07T11:47:22.904Z,34.99
2022-09-07T11:48:23.299Z,35.33
2022-09-07T11:49:23.550Z,35.63
2022-09-07T11:50:23.748Z,35.73
2022-09-07T11:51:24.037Z,34.64
2022-09-07T11:52:24.287Z,34.19
2022-09-07T11:53:24.534Z,33.70
2022-09-07T11:54:24.798Z,33.26
2022-09-07T11:55:25.058Z,33.20
2022-09-07T11:56:25.335Z,34.09
2022-09-07T11:57:25.532Z,34.70
2022-09-07T11:58:26.815Z,34.86
2022-09-07T11:59:26.103Z,35.39
2022-09-07T12:00:26.387Z,35.32
2022-09-07T12:01:26.672Z,34.89
2022-09-07T12:02:48.297Z,34.73
2022-09-07T12:03:28.227Z,35.06
2022-09-07T12:04:27.584Z,34.86
2022-09-07T12:05:27.660Z,34.22
2022-09-07T12:06:28.124Z,33.70
2022-09-07T12:07:28.305Z,33.19
2022-09-07T12:08:28.636Z,33.29
2022-09-07T12:09:28.915Z,31.96
2022-09-07T12:10:29.165Z,31.53
2022-09-07T12:11:30.349Z,32.00
2022-09-07T12:12:29.719Z,32.07
2022-09-07T12:13:29.954Z,32.25
2022-09-07T12:14:30.258Z,32.18
2022-09-07T12:15:30.549Z,31.72
2022-09-07T12:16:30.784Z,30.54
2022-09-07T12:17:31.065Z,30.23
2022-09-07T12:18:31.374Z,30.08
2022-09-07T12:19:31.631Z,30.03
2022-09-07T12:20:31.897Z,29.99
2022-09-07T12:21:32.170Z,30.30
2022-09-07T12:22:32.396Z,30.40
2022-09-07T12:23:32.638Z,30.12
2022-09-07T12:24:32.975Z,30.02
2022-09-07T12:25:33.237Z,29.70
2022-09-07T12:26:33.488Z,29.52
2022-09-07T12:27:34.640Z,29.41
2022-09-07T12:28:34.154Z,29.16
2022-09-07T12:29:34.345Z,28.84
2022-09-07T12:30:34.581Z,29.00
2022-09-07T12:31:39.746Z,29.08
2022-09-07T12:33:36.408Z,28.95
2022-09-07T12:34:35.794Z,29.08
2022-09-07T12:35:35.994Z,29.29
2022-09-07T12:36:36.231Z,29.20
2022-09-07T12:37:36.467Z,29.15
2022-09-07T12:38:36.798Z,29.25
2022-09-07T12:39:37.589Z,29.41
2022-09-07T12:40:37.451Z,29.62
2022-09-07T12:41:37.656Z,29.71
2022-09-07T12:42:37.942Z,29.71
2022-09-07T12:43:38.163Z,29.81
2022-09-07T12:44:38.416Z,29.94
2022-09-07T12:45:38.657Z,29.94
2022-09-07T12:46:38.978Z,29.50
2022-09-07T12:47:39.136Z,29.06
2022-09-07T12:48:39.467Z,28.87
2022-09-07T12:49:39.818Z,28.82
2022-09-07T12:50:40.449Z,28.97
2022-09-07T12:52:41.753Z,29.25
2022-09-07T12:53:41.061Z,29.35
2022-09-07T12:54:41.391Z,29.47
2022-09-07T12:56:43.180Z,29.63
2022-09-07T12:57:42.228Z,29.68
2022-09-07T12:58:42.488Z,29.66
2022-09-07T12:59:42.766Z,29.68
2022-09-07T13:00:43.058Z,29.75
2022-09-07T13:01:43.842Z,29.82
2022-09-07T13:02:43.803Z,29.92
2022-09-07T13:03:51.960Z,29.97
2022-09-07T13:04:45.179Z,30.14
2022-09-07T13:05:44.501Z,30.26
2022-09-07T13:07:45.930Z,30.54
2022-09-07T13:08:45.461Z,30.72
2022-09-07T13:09:45.529Z,30.87
2022-09-07T13:10:45.837Z,30.84
2022-09-07T13:11:46.149Z,30.76
2022-09-07T13:12:53.903Z,30.53
2022-09-07T13:14:05.146Z,30.45
2022-09-07T13:14:48.004Z,30.52
2022-09-07T13:15:48.588Z,30.59
2022-09-07T13:17:48.888Z,30.68
2022-09-07T13:18:48.158Z,30.64
2022-09-07T13:19:48.393Z,30.56
2022-09-07T13:20:48.816Z,30.53
2022-09-07T13:21:49.031Z,30.34
2022-09-07T13:22:49.279Z,30.21
2022-09-07T13:23:49.525Z,30.23
2022-09-07T13:24:49.834Z,29.99
2022-09-07T13:25:50.081Z,29.86
2022-09-07T13:26:51.273Z,29.79
2022-09-07T13:27:54.295Z,29.43
2022-09-07T13:28:50.946Z,29.41
2022-09-07T13:29:51.211Z,29.44
2022-09-07T13:30:51.502Z,29.13
2022-09-07T13:31:52.969Z,29.08
2022-09-07T13:33:08.362Z,29.26